<?xml version="1.0" encoding="UTF-8" standalone="no" ?>
<gpx xmlns="http://www.topografix.com/GPX/1/1" xmlns:xsi="http://www.w3.org/2001/XMLSchema-instance" xsi:schemaLocation="http://www.topografix.com/GPX/1/1 http://www.topografix.com/GPX/1/1/gpx.xsd" version="1.1" creator="VisuGPX - https://www.visugpx.com">
  <metadata>
    <name>Vacances 2021</name>
  </metadata>
  <trk>
    <name><![CDATA[Journal actif: 2021-07-28 15:03]]></name>
    <trkseg>
      <trkpt lat="49.41699" lon="2.82948">
        <ele>56.37</ele>
        <time>2021-07-28T17:03:09Z</time>
      </trkpt>
      <trkpt lat="49.41701" lon="2.8295">
        <ele>56.37</ele>
        <time>2021-07-28T17:03:16Z</time>
      </trkpt>
      <trkpt lat="49.41723" lon="2.82986">
        <ele>52.53</ele>
        <time>2021-07-28T17:03:32Z</time>
      </trkpt>
      <trkpt lat="49.41751" lon="2.83028">
        <ele>48.68</ele>
        <time>2021-07-28T17:03:44Z</time>
      </trkpt>
      <trkpt lat="49.41773" lon="2.83067">
        <ele>42.92</ele>
        <time>2021-07-28T17:03:56Z</time>
      </trkpt>
      <trkpt lat="49.41772" lon="2.83073">
        <ele>42.44</ele>
        <time>2021-07-28T17:03:57Z</time>
      </trkpt>
      <trkpt lat="49.4177" lon="2.83075">
        <ele>42.44</ele>
        <time>2021-07-28T17:03:58Z</time>
      </trkpt>
      <trkpt lat="49.41766" lon="2.8308">
        <ele>41.95</ele>
        <time>2021-07-28T17:03:59Z</time>
      </trkpt>
      <trkpt lat="49.41766" lon="2.8308">
        <ele>42.44</ele>
        <time>2021-07-28T17:04:00Z</time>
      </trkpt>
      <trkpt lat="49.41721" lon="2.83102">
        <ele>42.92</ele>
        <time>2021-07-28T17:04:13Z</time>
      </trkpt>
      <trkpt lat="49.41695" lon="2.83091">
        <ele>43.4</ele>
        <time>2021-07-28T17:04:21Z</time>
      </trkpt>
      <trkpt lat="49.41623" lon="2.8305">
        <ele>43.4</ele>
        <time>2021-07-28T17:04:36Z</time>
      </trkpt>
      <trkpt lat="49.41598" lon="2.83036">
        <ele>41.95</ele>
        <time>2021-07-28T17:04:44Z</time>
      </trkpt>
      <trkpt lat="49.41589" lon="2.83031">
        <ele>41.95</ele>
        <time>2021-07-28T17:04:45Z</time>
      </trkpt>
      <trkpt lat="49.41556" lon="2.83006">
        <ele>41.95</ele>
        <time>2021-07-28T17:04:55Z</time>
      </trkpt>
      <trkpt lat="49.41528" lon="2.82957">
        <ele>41.95</ele>
        <time>2021-07-28T17:05:08Z</time>
      </trkpt>
      <trkpt lat="49.41511" lon="2.82925">
        <ele>41.95</ele>
        <time>2021-07-28T17:05:13Z</time>
      </trkpt>
      <trkpt lat="49.41511" lon="2.82925">
        <ele>41.95</ele>
        <time>2021-07-28T17:05:14Z</time>
      </trkpt>
      <trkpt lat="49.41509" lon="2.82921">
        <ele>41.95</ele>
        <time>2021-07-28T17:05:15Z</time>
      </trkpt>
      <trkpt lat="49.41489" lon="2.82883">
        <ele>41.47</ele>
        <time>2021-07-28T17:05:25Z</time>
      </trkpt>
      <trkpt lat="49.4148" lon="2.82867">
        <ele>43.88</ele>
        <time>2021-07-28T17:05:32Z</time>
      </trkpt>
      <trkpt lat="49.41477" lon="2.82866">
        <ele>43.88</ele>
        <time>2021-07-28T17:05:33Z</time>
      </trkpt>
      <trkpt lat="49.41475" lon="2.82868">
        <ele>43.88</ele>
        <time>2021-07-28T17:05:34Z</time>
      </trkpt>
      <trkpt lat="49.41475" lon="2.82868">
        <ele>43.88</ele>
        <time>2021-07-28T17:05:35Z</time>
      </trkpt>
      <trkpt lat="49.41472" lon="2.82871">
        <ele>43.4</ele>
        <time>2021-07-28T17:05:36Z</time>
      </trkpt>
      <trkpt lat="49.41469" lon="2.82875">
        <ele>43.4</ele>
        <time>2021-07-28T17:05:37Z</time>
      </trkpt>
      <trkpt lat="49.4142" lon="2.82932">
        <ele>43.4</ele>
        <time>2021-07-28T17:05:49Z</time>
      </trkpt>
      <trkpt lat="49.41387" lon="2.82972">
        <ele>42.92</ele>
        <time>2021-07-28T17:06:02Z</time>
      </trkpt>
      <trkpt lat="49.41387" lon="2.82972">
        <ele>42.92</ele>
        <time>2021-07-28T17:06:41Z</time>
      </trkpt>
      <trkpt lat="49.41384" lon="2.82975">
        <ele>42.92</ele>
        <time>2021-07-28T17:06:42Z</time>
      </trkpt>
      <trkpt lat="49.41383" lon="2.82977">
        <ele>42.92</ele>
        <time>2021-07-28T17:06:43Z</time>
      </trkpt>
      <trkpt lat="49.4138" lon="2.8298">
        <ele>42.92</ele>
        <time>2021-07-28T17:06:44Z</time>
      </trkpt>
      <trkpt lat="49.41377" lon="2.82983">
        <ele>42.44</ele>
        <time>2021-07-28T17:06:45Z</time>
      </trkpt>
      <trkpt lat="49.41314" lon="2.8305">
        <ele>43.88</ele>
        <time>2021-07-28T17:06:59Z</time>
      </trkpt>
      <trkpt lat="49.41256" lon="2.83111">
        <ele>44.36</ele>
        <time>2021-07-28T17:07:10Z</time>
      </trkpt>
      <trkpt lat="49.41148" lon="2.83226">
        <ele>43.88</ele>
        <time>2021-07-28T17:07:25Z</time>
      </trkpt>
      <trkpt lat="49.41102" lon="2.83279">
        <ele>43.4</ele>
        <time>2021-07-28T17:07:34Z</time>
      </trkpt>
      <trkpt lat="49.41042" lon="2.83351">
        <ele>43.4</ele>
        <time>2021-07-28T17:07:45Z</time>
      </trkpt>
      <trkpt lat="49.40926" lon="2.8348">
        <ele>45.32</ele>
        <time>2021-07-28T17:08:01Z</time>
      </trkpt>
      <trkpt lat="49.40744" lon="2.83639">
        <ele>50.61</ele>
        <time>2021-07-28T17:08:24Z</time>
      </trkpt>
      <trkpt lat="49.40611" lon="2.83755">
        <ele>53.01</ele>
        <time>2021-07-28T17:08:40Z</time>
      </trkpt>
      <trkpt lat="49.40596" lon="2.8377">
        <ele>53.01</ele>
        <time>2021-07-28T17:08:43Z</time>
      </trkpt>
      <trkpt lat="49.40591" lon="2.83773">
        <ele>53.49</ele>
        <time>2021-07-28T17:08:44Z</time>
      </trkpt>
      <trkpt lat="49.40588" lon="2.83776">
        <ele>53.97</ele>
        <time>2021-07-28T17:08:45Z</time>
      </trkpt>
      <trkpt lat="49.40584" lon="2.83778">
        <ele>53.97</ele>
        <time>2021-07-28T17:08:46Z</time>
      </trkpt>
      <trkpt lat="49.40581" lon="2.8378">
        <ele>54.45</ele>
        <time>2021-07-28T17:08:47Z</time>
      </trkpt>
      <trkpt lat="49.40569" lon="2.83765">
        <ele>54.93</ele>
        <time>2021-07-28T17:08:48Z</time>
      </trkpt>
      <trkpt lat="49.40569" lon="2.83765">
        <ele>55.41</ele>
        <time>2021-07-28T17:08:49Z</time>
      </trkpt>
      <trkpt lat="49.40566" lon="2.83765">
        <ele>55.41</ele>
        <time>2021-07-28T17:08:50Z</time>
      </trkpt>
      <trkpt lat="49.40562" lon="2.83765">
        <ele>55.89</ele>
        <time>2021-07-28T17:08:51Z</time>
      </trkpt>
      <trkpt lat="49.40558" lon="2.83765">
        <ele>55.41</ele>
        <time>2021-07-28T17:08:52Z</time>
      </trkpt>
      <trkpt lat="49.4055" lon="2.83767">
        <ele>54.93</ele>
        <time>2021-07-28T17:08:53Z</time>
      </trkpt>
      <trkpt lat="49.40544" lon="2.83775">
        <ele>54.93</ele>
        <time>2021-07-28T17:08:54Z</time>
      </trkpt>
      <trkpt lat="49.40544" lon="2.83793">
        <ele>54.93</ele>
        <time>2021-07-28T17:08:55Z</time>
      </trkpt>
      <trkpt lat="49.40546" lon="2.83799">
        <ele>55.41</ele>
        <time>2021-07-28T17:08:56Z</time>
      </trkpt>
      <trkpt lat="49.40548" lon="2.83804">
        <ele>55.41</ele>
        <time>2021-07-28T17:08:57Z</time>
      </trkpt>
      <trkpt lat="49.40554" lon="2.83823">
        <ele>54.93</ele>
        <time>2021-07-28T17:08:59Z</time>
      </trkpt>
      <trkpt lat="49.40552" lon="2.83834">
        <ele>54.93</ele>
        <time>2021-07-28T17:09:00Z</time>
      </trkpt>
      <trkpt lat="49.40549" lon="2.83847">
        <ele>54.93</ele>
        <time>2021-07-28T17:09:01Z</time>
      </trkpt>
      <trkpt lat="49.40511" lon="2.84027">
        <ele>54.93</ele>
        <time>2021-07-28T17:09:13Z</time>
      </trkpt>
      <trkpt lat="49.40453" lon="2.84281">
        <ele>53.97</ele>
        <time>2021-07-28T17:09:27Z</time>
      </trkpt>
      <trkpt lat="49.40384" lon="2.84589">
        <ele>53.01</ele>
        <time>2021-07-28T17:09:42Z</time>
      </trkpt>
      <trkpt lat="49.40312" lon="2.84919">
        <ele>51.09</ele>
        <time>2021-07-28T17:09:56Z</time>
      </trkpt>
      <trkpt lat="49.40281" lon="2.85057">
        <ele>48.2</ele>
        <time>2021-07-28T17:10:05Z</time>
      </trkpt>
      <trkpt lat="49.40269" lon="2.85111">
        <ele>47.72</ele>
        <time>2021-07-28T17:10:09Z</time>
      </trkpt>
      <trkpt lat="49.40252" lon="2.85185">
        <ele>49.16</ele>
        <time>2021-07-28T17:10:18Z</time>
      </trkpt>
      <trkpt lat="49.40251" lon="2.85189">
        <ele>50.13</ele>
        <time>2021-07-28T17:10:30Z</time>
      </trkpt>
      <trkpt lat="49.40248" lon="2.85203">
        <ele>50.13</ele>
        <time>2021-07-28T17:10:34Z</time>
      </trkpt>
      <trkpt lat="49.40228" lon="2.85292">
        <ele>50.13</ele>
        <time>2021-07-28T17:10:42Z</time>
      </trkpt>
      <trkpt lat="49.40185" lon="2.85481">
        <ele>50.13</ele>
        <time>2021-07-28T17:10:52Z</time>
      </trkpt>
      <trkpt lat="49.40108" lon="2.85831">
        <ele>52.53</ele>
        <time>2021-07-28T17:11:05Z</time>
      </trkpt>
      <trkpt lat="49.39986" lon="2.8638">
        <ele>53.97</ele>
        <time>2021-07-28T17:11:26Z</time>
      </trkpt>
      <trkpt lat="49.39868" lon="2.86891">
        <ele>50.61</ele>
        <time>2021-07-28T17:11:44Z</time>
      </trkpt>
      <trkpt lat="49.39803" lon="2.872">
        <ele>48.2</ele>
        <time>2021-07-28T17:11:57Z</time>
      </trkpt>
      <trkpt lat="49.3978" lon="2.87262">
        <ele>47.72</ele>
        <time>2021-07-28T17:12:03Z</time>
      </trkpt>
      <trkpt lat="49.39776" lon="2.87285">
        <ele>47.72</ele>
        <time>2021-07-28T17:12:05Z</time>
      </trkpt>
      <trkpt lat="49.39777" lon="2.87294">
        <ele>47.24</ele>
        <time>2021-07-28T17:12:06Z</time>
      </trkpt>
      <trkpt lat="49.39773" lon="2.8731">
        <ele>47.24</ele>
        <time>2021-07-28T17:12:07Z</time>
      </trkpt>
      <trkpt lat="49.39701" lon="2.87419">
        <ele>45.32</ele>
        <time>2021-07-28T17:12:16Z</time>
      </trkpt>
      <trkpt lat="49.39595" lon="2.87594">
        <ele>41.95</ele>
        <time>2021-07-28T17:12:27Z</time>
      </trkpt>
      <trkpt lat="49.39484" lon="2.87775">
        <ele>38.59</ele>
        <time>2021-07-28T17:12:37Z</time>
      </trkpt>
      <trkpt lat="49.39328" lon="2.88031">
        <ele>35.23</ele>
        <time>2021-07-28T17:12:49Z</time>
      </trkpt>
      <trkpt lat="49.39176" lon="2.88282">
        <ele>33.78</ele>
        <time>2021-07-28T17:13:02Z</time>
      </trkpt>
      <trkpt lat="49.38967" lon="2.88622">
        <ele>33.78</ele>
        <time>2021-07-28T17:13:17Z</time>
      </trkpt>
      <trkpt lat="49.38858" lon="2.8885">
        <ele>31.38</ele>
        <time>2021-07-28T17:13:26Z</time>
      </trkpt>
      <trkpt lat="49.38703" lon="2.89223">
        <ele>25.61</ele>
        <time>2021-07-28T17:13:40Z</time>
      </trkpt>
      <trkpt lat="49.38561" lon="2.89563">
        <ele>24.17</ele>
        <time>2021-07-28T17:13:53Z</time>
      </trkpt>
      <trkpt lat="49.38408" lon="2.8993">
        <ele>30.42</ele>
        <time>2021-07-28T17:14:07Z</time>
      </trkpt>
      <trkpt lat="49.38281" lon="2.90244">
        <ele>40.51</ele>
        <time>2021-07-28T17:14:19Z</time>
      </trkpt>
      <trkpt lat="49.38211" lon="2.90481">
        <ele>47.72</ele>
        <time>2021-07-28T17:14:28Z</time>
      </trkpt>
      <trkpt lat="49.38125" lon="2.90681">
        <ele>54.93</ele>
        <time>2021-07-28T17:14:36Z</time>
      </trkpt>
      <trkpt lat="49.3801" lon="2.90924">
        <ele>57.82</ele>
        <time>2021-07-28T17:14:49Z</time>
      </trkpt>
      <trkpt lat="49.37863" lon="2.91238">
        <ele>55.41</ele>
        <time>2021-07-28T17:15:03Z</time>
      </trkpt>
      <trkpt lat="49.37676" lon="2.91643">
        <ele>55.41</ele>
        <time>2021-07-28T17:15:20Z</time>
      </trkpt>
      <trkpt lat="49.37559" lon="2.91933">
        <ele>55.41</ele>
        <time>2021-07-28T17:15:32Z</time>
      </trkpt>
      <trkpt lat="49.37445" lon="2.92253">
        <ele>56.37</ele>
        <time>2021-07-28T17:15:45Z</time>
      </trkpt>
      <trkpt lat="49.37315" lon="2.92609">
        <ele>63.58</ele>
        <time>2021-07-28T17:15:59Z</time>
      </trkpt>
      <trkpt lat="49.37193" lon="2.9294">
        <ele>66.47</ele>
        <time>2021-07-28T17:16:14Z</time>
      </trkpt>
      <trkpt lat="49.37032" lon="2.93375">
        <ele>64.07</ele>
        <time>2021-07-28T17:16:30Z</time>
      </trkpt>
      <trkpt lat="49.36906" lon="2.93714">
        <ele>68.39</ele>
        <time>2021-07-28T17:16:44Z</time>
      </trkpt>
      <trkpt lat="49.36806" lon="2.93985">
        <ele>63.1</ele>
        <time>2021-07-28T17:16:56Z</time>
      </trkpt>
      <trkpt lat="49.3671" lon="2.94266">
        <ele>62.14</ele>
        <time>2021-07-28T17:17:07Z</time>
      </trkpt>
      <trkpt lat="49.36704" lon="2.94294">
        <ele>62.14</ele>
        <time>2021-07-28T17:17:08Z</time>
      </trkpt>
      <trkpt lat="49.36657" lon="2.94656">
        <ele>66.47</ele>
        <time>2021-07-28T17:17:20Z</time>
      </trkpt>
      <trkpt lat="49.36602" lon="2.95033">
        <ele>63.1</ele>
        <time>2021-07-28T17:17:32Z</time>
      </trkpt>
      <trkpt lat="49.36503" lon="2.95298">
        <ele>58.3</ele>
        <time>2021-07-28T17:17:41Z</time>
      </trkpt>
      <trkpt lat="49.36408" lon="2.95499">
        <ele>56.86</ele>
        <time>2021-07-28T17:17:49Z</time>
      </trkpt>
      <trkpt lat="49.36292" lon="2.95707">
        <ele>57.82</ele>
        <time>2021-07-28T17:17:59Z</time>
      </trkpt>
      <trkpt lat="49.36125" lon="2.95981">
        <ele>62.62</ele>
        <time>2021-07-28T17:18:13Z</time>
      </trkpt>
      <trkpt lat="49.3602" lon="2.96198">
        <ele>64.55</ele>
        <time>2021-07-28T17:18:23Z</time>
      </trkpt>
      <trkpt lat="49.35966" lon="2.96455">
        <ele>70.31</ele>
        <time>2021-07-28T17:18:32Z</time>
      </trkpt>
      <trkpt lat="49.3594" lon="2.96601">
        <ele>71.27</ele>
        <time>2021-07-28T17:18:39Z</time>
      </trkpt>
      <trkpt lat="49.35893" lon="2.96742">
        <ele>68.87</ele>
        <time>2021-07-28T17:18:45Z</time>
      </trkpt>
      <trkpt lat="49.35767" lon="2.96988">
        <ele>67.91</ele>
        <time>2021-07-28T17:18:57Z</time>
      </trkpt>
      <trkpt lat="49.35596" lon="2.97245">
        <ele>68.87</ele>
        <time>2021-07-28T17:19:11Z</time>
      </trkpt>
      <trkpt lat="49.35491" lon="2.9745">
        <ele>73.2</ele>
        <time>2021-07-28T17:19:22Z</time>
      </trkpt>
      <trkpt lat="49.35407" lon="2.97618">
        <ele>71.27</ele>
        <time>2021-07-28T17:19:33Z</time>
      </trkpt>
      <trkpt lat="49.35365" lon="2.97702">
        <ele>70.79</ele>
        <time>2021-07-28T17:19:41Z</time>
      </trkpt>
      <trkpt lat="49.35363" lon="2.97708">
        <ele>75.12</ele>
        <time>2021-07-28T17:19:55Z</time>
      </trkpt>
      <trkpt lat="49.35334" lon="2.97762">
        <ele>75.12</ele>
        <time>2021-07-28T17:20:03Z</time>
      </trkpt>
      <trkpt lat="49.3527" lon="2.97891">
        <ele>76.08</ele>
        <time>2021-07-28T17:20:15Z</time>
      </trkpt>
      <trkpt lat="49.35255" lon="2.97918">
        <ele>76.56</ele>
        <time>2021-07-28T17:20:18Z</time>
      </trkpt>
      <trkpt lat="49.35245" lon="2.97931">
        <ele>77.04</ele>
        <time>2021-07-28T17:20:20Z</time>
      </trkpt>
    </trkseg>
  </trk>
</gpx>